sensor_id;sensor_type;location;lat;lon;timestamp;pressure;altitude;pressure_sealevel;temperature;humidity
4022;BME280;2025;48.260;16.432;2023-02-28T00:01:07;100937.94;;;-1.58;66.84
4022;BME280;2025;48.260;16.432;2023-02-28T00:03:34;100942.56;;;-1.66;67.24
4022;BME280;2025;48.260;16.432;2023-02-28T00:06:02;100940.25;;;-1.72;67.60
4022;BME280;2025;48.260;16.432;2023-02-28T00:08:29;100939.31;;;-1.71;67.41
4022;BME280;2025;48.260;16.432;2023-02-28T00:10:59;100947.06;;;-1.71;67.31
4022;BME280;2025;48.260;16.432;2023-02-28T00:13:27;100945.47;;;-1.74;67.66
4022;BME280;2025;48.260;16.432;2023-02-28T00:16:00;100935.97;;;-1.73;67.36
4022;BME280;2025;48.260;16.432;2023-02-28T00:18:27;100947.03;;;-1.70;67.70
4022;BME280;2025;48.260;16.432;2023-02-28T00:20:54;100939.13;;;-1.66;67.40
4022;BME280;2025;48.260;16.432;2023-02-28T00:23:21;100944.34;;;-1.68;67.21
4022;BME280;2025;48.260;16.432;2023-02-28T00:25:48;100946.09;;;-1.68;67.26
4022;BME280;2025;48.260;16.432;2023-02-28T00:28:17;100953.94;;;-1.70;67.56
4022;BME280;2025;48.260;16.432;2023-02-28T00:30:44;100947.91;;;-1.71;67.37
4022;BME280;2025;48.260;16.432;2023-02-28T00:33:11;100946.25;;;-1.72;67.77
4022;BME280;2025;48.260;16.432;2023-02-28T00:35:38;100953.22;;;-1.74;67.66
4022;BME280;2025;48.260;16.432;2023-02-28T00:38:04;100953.25;;;-1.75;67.36
4022;BME280;2025;48.260;16.432;2023-02-28T00:40:31;100948.00;;;-1.72;67.34
4022;BME280;2025;48.260;16.432;2023-02-28T00:42:58;100952.25;;;-1.71;67.67
4022;BME280;2025;48.260;16.432;2023-02-28T00:45:26;100955.38;;;-1.63;66.68
4022;BME280;2025;48.260;16.432;2023-02-28T00:47:53;100954.47;;;-1.62;66.90
4022;BME280;2025;48.260;16.432;2023-02-28T00:50:20;100950.25;;;-1.64;66.93
4022;BME280;2025;48.260;16.432;2023-02-28T00:52:47;100953.69;;;-1.64;67.40
4022;BME280;2025;48.260;16.432;2023-02-28T00:55:15;100957.03;;;-1.62;67.89
4022;BME280;2025;48.260;16.432;2023-02-28T00:57:41;100950.91;;;-1.59;67.53
4022;BME280;2025;48.260;16.432;2023-02-28T01:00:10;100951.63;;;-1.56;67.68
4022;BME280;2025;48.260;16.432;2023-02-28T01:02:38;100950.03;;;-1.58;67.80
4022;BME280;2025;48.260;16.432;2023-02-28T01:05:06;100950.03;;;-1.58;67.26
4022;BME280;2025;48.260;16.432;2023-02-28T01:07:33;100956.63;;;-1.51;66.30
4022;BME280;2025;48.260;16.432;2023-02-28T01:09:59;100951.19;;;-1.45;66.53
4022;BME280;2025;48.260;16.432;2023-02-28T01:12:26;100947.91;;;-1.49;66.68
4022;BME280;2025;48.260;16.432;2023-02-28T01:14:53;100947.13;;;-1.51;66.66
4022;BME280;2025;48.260;16.432;2023-02-28T01:17:20;100947.91;;;-1.49;66.38
4022;BME280;2025;48.260;16.432;2023-02-28T01:19:48;100949.50;;;-1.46;65.74
4022;BME280;2025;48.260;16.432;2023-02-28T01:22:15;100950.59;;;-1.52;66.66
4022;BME280;2025;48.260;16.432;2023-02-28T01:24:41;100954.69;;;-1.46;66.12
4022;BME280;2025;48.260;16.432;2023-02-28T01:27:08;100948.50;;;-1.42;66.36
4022;BME280;2025;48.260;16.432;2023-02-28T01:29:35;100946.16;;;-1.48;66.75
4022;BME280;2025;48.260;16.432;2023-02-28T01:32:02;100952.41;;;-1.54;66.90
4022;BME280;2025;48.260;16.432;2023-02-28T01:34:29;100953.34;;;-1.56;67.14
4022;BME280;2025;48.260;16.432;2023-02-28T01:36:57;100949.25;;;-1.60;66.69
4022;BME280;2025;48.260;16.432;2023-02-28T01:39:25;100956.16;;;-1.61;66.60
4022;BME280;2025;48.260;16.432;2023-02-28T01:41:52;100957.03;;;-1.62;67.40
4022;BME280;2025;48.260;16.432;2023-02-28T01:47:25;100954.69;;;-1.68;66.96
4022;BME280;2025;48.260;16.432;2023-02-28T01:49:53;100961.69;;;-1.70;68.36
4022;BME280;2025;48.260;16.432;2023-02-28T01:52:22;100955.66;;;-1.71;67.45
4022;BME280;2025;48.260;16.432;2023-02-28T01:54:52;100964.97;;;-1.66;67.13
4022;BME280;2025;48.260;16.432;2023-02-28T01:57:23;100956.44;;;-1.68;66.84
4022;BME280;2025;48.260;16.432;2023-02-28T01:59:54;100966.00;;;-1.71;67.63
4022;BME280;2025;48.260;16.432;2023-02-28T02:02:25;100964.38;;;-1.73;67.76
4022;BME280;2025;48.260;16.432;2023-02-28T02:04:55;100964.84;;;-1.63;67.64
4022;BME280;2025;48.260;16.432;2023-02-28T02:07:26;100973.66;;;-1.47;66.72
4022;BME280;2025;48.260;16.432;2023-02-28T02:10:00;100957.66;;;-1.35;66.14
4022;BME280;2025;48.260;16.432;2023-02-28T02:12:37;100962.56;;;-1.49;65.96
4022;BME280;2025;48.260;16.432;2023-02-28T02:15:12;100961.09;;;-1.56;66.00
4022;BME280;2025;48.260;16.432;2023-02-28T02:17:45;100967.97;;;-1.55;66.61
4022;BME280;2025;48.260;16.432;2023-02-28T02:29:31;100969.66;;;-1.34;65.49
4022;BME280;2025;48.260;16.432;2023-02-28T02:32:27;100970.13;;;-1.44;68.00
4022;BME280;2025;48.260;16.432;2023-02-28T02:35:05;100964.13;;;-1.24;65.25
4022;BME280;2025;48.260;16.432;2023-02-28T02:37:39;100963.59;;;-1.12;64.61
4022;BME280;2025;48.260;16.432;2023-02-28T02:40:12;100963.09;;;-1.20;64.38
4022;BME280;2025;48.260;16.432;2023-02-28T02:42:44;100962.84;;;-1.35;65.45
4022;BME280;2025;48.260;16.432;2023-02-28T02:45:18;100970.03;;;-1.43;66.52
4022;BME280;2025;48.260;16.432;2023-02-28T02:47:49;100964.56;;;-1.56;67.64
4022;BME280;2025;48.260;16.432;2023-02-28T02:50:22;100974.09;;;-1.58;67.69
4022;BME280;2025;48.260;16.432;2023-02-28T02:52:55;100968.53;;;-1.69;67.46
4022;BME280;2025;48.260;16.432;2023-02-28T02:55:23;100958.44;;;-1.75;68.13
4022;BME280;2025;48.260;16.432;2023-02-28T02:57:54;100962.56;;;-1.71;68.23
4022;BME280;2025;48.260;16.432;2023-02-28T03:00:27;100956.88;;;-1.79;69.16
4022;BME280;2025;48.260;16.432;2023-02-28T03:02:56;100951.22;;;-1.89;69.22
4022;BME280;2025;48.260;16.432;2023-02-28T03:05:27;100964.25;;;-1.92;68.78
4022;BME280;2025;48.260;16.432;2023-02-28T03:07:56;100965.34;;;-1.98;69.61
4022;BME280;2025;48.260;16.432;2023-02-28T03:13:32;100959.88;;;-2.12;69.12
4022;BME280;2025;48.260;16.432;2023-02-28T03:16:28;100962.50;;;-2.14;69.68
4022;BME280;2025;48.260;16.432;2023-02-28T03:19:06;100957.53;;;-2.18;71.55
4022;BME280;2025;48.260;16.432;2023-02-28T03:21:42;100963.53;;;-2.18;70.71
4022;BME280;2025;48.260;16.432;2023-02-28T03:24:13;100962.56;;;-2.15;70.30
4022;BME280;2025;48.260;16.432;2023-02-28T03:26:46;100964.34;;;-2.17;69.92
4022;BME280;2025;48.260;16.432;2023-02-28T03:29:23;100964.44;;;-2.19;70.37
4022;BME280;2025;48.260;16.432;2023-02-28T03:31:56;100966.09;;;-2.18;70.24
4022;BME280;2025;48.260;16.432;2023-02-28T03:34:29;100957.56;;;-2.20;70.36
4022;BME280;2025;48.260;16.432;2023-02-28T03:37:03;100953.50;;;-2.25;70.79
4022;BME280;2025;48.260;16.432;2023-02-28T03:39:36;100962.47;;;-2.36;70.81
4022;BME280;2025;48.260;16.432;2023-02-28T03:42:09;100962.75;;;-2.43;70.44
4022;BME280;2025;48.260;16.432;2023-02-28T03:44:41;100956.88;;;-2.47;70.94
4022;BME280;2025;48.260;16.432;2023-02-28T03:47:11;100961.53;;;-2.33;70.25
4022;BME280;2025;48.260;16.432;2023-02-28T03:49:43;100968.16;;;-2.26;70.63
4022;BME280;2025;48.260;16.432;2023-02-28T03:52:14;100956.47;;;-2.36;70.79
4022;BME280;2025;48.260;16.432;2023-02-28T03:54:43;100969.72;;;-2.45;71.41
4022;BME280;2025;48.260;16.432;2023-02-28T03:57:15;100969.97;;;-2.51;nan
4022;BME280;2025;48.260;16.432;2023-02-28T03:59:49;100955.59;;;-2.59;71.57
4022;BME280;2025;48.260;16.432;2023-02-28T04:02:19;100961.69;;;-2.61;71.74
4022;BME280;2025;48.260;16.432;2023-02-28T04:04:46;100958.34;;;-2.63;71.88
4022;BME280;2025;48.260;16.432;2023-02-28T04:07:15;100967.09;;;-2.67;71.69
4022;BME280;2025;48.260;16.432;2023-02-28T04:09:42;100957.72;;;-2.70;71.83
4022;BME280;2025;48.260;16.432;2023-02-28T04:12:09;100963.59;;;-2.66;72.31
4022;BME280;2025;48.260;16.432;2023-02-28T04:14:36;100965.91;;;-2.59;72.97
4022;BME280;2025;48.260;16.432;2023-02-28T04:17:03;100962.59;;;-2.62;72.87
4022;BME280;2025;48.260;16.432;2023-02-28T04:19:30;100967.97;;;-2.68;72.46
4022;BME280;2025;48.260;16.432;2023-02-28T04:21:57;100972.34;;;-2.70;72.57
4022;BME280;2025;48.260;16.432;2023-02-28T04:24:26;100973.28;;;-2.73;72.40
4022;BME280;2025;48.260;16.432;2023-02-28T04:26:54;100979.41;;;-2.76;72.75
4022;BME280;2025;48.260;16.432;2023-02-28T04:29:24;100969.03;;;-2.50;72.19
4022;BME280;2025;48.260;16.432;2023-02-28T04:31:51;100974.50;;;-2.35;71.85
4022;BME280;2025;48.260;16.432;2023-02-28T04:34:19;100978.47;;;-2.26;71.89
4022;BME280;2025;48.260;16.432;2023-02-28T04:36:46;100973.97;;;-2.21;72.59
4022;BME280;2025;48.260;16.432;2023-02-28T04:39:14;100982.63;;;-2.00;70.56
4022;BME280;2025;48.260;16.432;2023-02-28T04:41:45;100975.38;;;-2.12;71.33
4022;BME280;2025;48.260;16.432;2023-02-28T04:44:12;100963.56;;;-2.19;nan
4022;BME280;2025;48.260;16.432;2023-02-28T04:46:40;100976.59;;;-2.22;71.30
4022;BME280;2025;48.260;16.432;2023-02-28T04:49:08;100978.31;;;-2.21;71.99
4022;BME280;2025;48.260;16.432;2023-02-28T04:51:35;100976.72;;;-2.25;71.64
4022;BME280;2025;48.260;16.432;2023-02-28T04:54:02;100977.72;;;-2.29;71.47
4022;BME280;2025;48.260;16.432;2023-02-28T04:56:29;100974.50;;;-2.35;71.76
4022;BME280;2025;48.260;16.432;2023-02-28T04:58:57;100979.69;;;-2.36;71.80
4022;BME280;2025;48.260;16.432;2023-02-28T05:01:25;100977.94;;;-2.36;71.45
4022;BME280;2025;48.260;16.432;2023-02-28T05:03:54;100974.94;;;-2.23;71.06
4022;BME280;2025;48.260;16.432;2023-02-28T05:06:22;100976.56;;;-2.44;72.15
4022;BME280;2025;48.260;16.432;2023-02-28T05:08:50;100982.84;;;-2.51;72.79
4022;BME280;2025;48.260;16.432;2023-02-28T05:11:19;100977.16;;;-2.61;72.58
4022;BME280;2025;48.260;16.432;2023-02-28T05:13:47;100979.81;;;-2.63;72.69
4022;BME280;2025;48.260;16.432;2023-02-28T05:16:16;100970.28;;;-2.61;72.48
4022;BME280;2025;48.260;16.432;2023-02-28T05:18:44;100975.22;;;-2.55;72.53
4022;BME280;2025;48.260;16.432;2023-02-28T05:21:25;100980.94;;;-2.70;72.80
4022;BME280;2025;48.260;16.432;2023-02-28T05:23:52;100978.28;;;-2.68;73.13
4022;BME280;2025;48.260;16.432;2023-02-28T05:26:20;100984.06;;;-2.62;72.63
4022;BME280;2025;48.260;16.432;2023-02-28T05:28:47;100976.44;;;-2.65;72.81
4022;BME280;2025;48.260;16.432;2023-02-28T05:31:15;100984.72;;;-2.57;72.65
4022;BME280;2025;48.260;16.432;2023-02-28T05:33:42;100985.22;;;-2.70;73.03
4022;BME280;2025;48.260;16.432;2023-02-28T05:36:09;100985.94;;;-2.90;72.97
4022;BME280;2025;48.260;16.432;2023-02-28T05:38:36;100992.25;;;-2.99;73.62
4022;BME280;2025;48.260;16.432;2023-02-28T05:41:05;100997.38;;;-2.98;73.59
4022;BME280;2025;48.260;16.432;2023-02-28T05:43:33;101000.88;;;-3.00;74.06
4022;BME280;2025;48.260;16.432;2023-02-28T05:46:03;101000.09;;;-3.02;74.19
4022;BME280;2025;48.260;16.432;2023-02-28T05:48:32;101007.19;;;-2.84;73.82
4022;BME280;2025;48.260;16.432;2023-02-28T05:50:59;101008.25;;;-2.89;75.04
4022;BME280;2025;48.260;16.432;2023-02-28T05:53:26;101006.28;;;-2.83;74.78
4022;BME280;2025;48.260;16.432;2023-02-28T05:55:53;101004.63;;;-2.84;75.07
4022;BME280;2025;48.260;16.432;2023-02-28T05:58:21;101011.22;;;-2.75;74.63
4022;BME280;2025;48.260;16.432;2023-02-28T06:00:48;101013.22;;;-2.60;73.98
4022;BME280;2025;48.260;16.432;2023-02-28T06:03:15;101008.66;;;-2.51;73.51
4022;BME280;2025;48.260;16.432;2023-02-28T06:05:44;101013.09;;;-2.57;73.25
4022;BME280;2025;48.260;16.432;2023-02-28T06:08:11;101013.31;;;-2.38;72.35
4022;BME280;2025;48.260;16.432;2023-02-28T06:10:37;101018.41;;;-2.36;72.22
4022;BME280;2025;48.260;16.432;2023-02-28T06:13:05;101021.47;;;-2.26;71.48
4022;BME280;2025;48.260;16.432;2023-02-28T06:15:32;101017.78;;;-2.19;71.85
4022;BME280;2025;48.260;16.432;2023-02-28T06:17:59;101014.63;;;-2.04;70.95
4022;BME280;2025;48.260;16.432;2023-02-28T06:20:27;101022.25;;;-2.01;71.06
4022;BME280;2025;48.260;16.432;2023-02-28T06:22:56;101018.53;;;-1.94;69.59
4022;BME280;2025;48.260;16.432;2023-02-28T06:25:25;101020.22;;;-1.93;69.63
4022;BME280;2025;48.260;16.432;2023-02-28T06:27:53;101012.31;;;-1.88;69.37
4022;BME280;2025;48.260;16.432;2023-02-28T06:30:20;101020.84;;;-1.86;69.07
4022;BME280;2025;48.260;16.432;2023-02-28T06:32:50;101023.44;;;-1.86;68.67
4022;BME280;2025;48.260;16.432;2023-02-28T06:35:17;101016.66;;;-1.88;69.03
4022;BME280;2025;48.260;16.432;2023-02-28T06:37:44;101028.41;;;-1.81;69.22
4022;BME280;2025;48.260;16.432;2023-02-28T06:40:14;101029.25;;;-1.81;68.85
4022;BME280;2025;48.260;16.432;2023-02-28T06:42:41;101031.63;;;-1.75;68.76
4022;BME280;2025;48.260;16.432;2023-02-28T06:45:08;101030.69;;;-1.74;68.99
4022;BME280;2025;48.260;16.432;2023-02-28T06:47:36;101039.72;;;-1.62;68.95
4022;BME280;2025;48.260;16.432;2023-02-28T06:50:04;101041.94;;;-1.53;68.29
4022;BME280;2025;48.260;16.432;2023-02-28T06:52:31;101038.16;;;-1.44;68.06
4022;BME280;2025;48.260;16.432;2023-02-28T06:54:58;101048.97;;;-1.34;67.83
4022;BME280;2025;48.260;16.432;2023-02-28T06:57:29;101041.16;;;-1.33;67.73
4022;BME280;2025;48.260;16.432;2023-02-28T06:59:57;101041.16;;;-1.33;69.03
4022;BME280;2025;48.260;16.432;2023-02-28T07:02:24;101045.09;;;-1.24;66.71
4022;BME280;2025;48.260;16.432;2023-02-28T07:04:52;101046.72;;;-1.21;67.10
4022;BME280;2025;48.260;16.432;2023-02-28T07:07:18;101045.03;;;-1.22;66.52
4022;BME280;2025;48.260;16.432;2023-02-28T07:09:45;101042.59;;;-1.25;67.69
4022;BME280;2025;48.260;16.432;2023-02-28T07:12:12;101043.00;;;-1.14;66.68
4022;BME280;2025;48.260;16.432;2023-02-28T07:14:40;101035.81;;;-1.08;66.49
4022;BME280;2025;48.260;16.432;2023-02-28T07:17:07;101037.38;;;-1.03;66.62
4022;BME280;2025;48.260;16.432;2023-02-28T07:19:36;101030.13;;;-0.95;67.48
4022;BME280;2025;48.260;16.432;2023-02-28T07:22:02;101035.75;;;-0.86;66.04
4022;BME280;2025;48.260;16.432;2023-02-28T07:24:30;101036.34;;;-0.79;65.98
4022;BME280;2025;48.260;16.432;2023-02-28T07:26:57;101047.00;;;-0.66;66.25
4022;BME280;2025;48.260;16.432;2023-02-28T07:29:33;101043.13;;;-0.56;65.50
4022;BME280;2025;48.260;16.432;2023-02-28T07:32:05;101050.59;;;-0.50;65.48
4022;BME280;2025;48.260;16.432;2023-02-28T07:34:32;101048.66;;;-0.45;65.16
4022;BME280;2025;48.260;16.432;2023-02-28T07:37:00;101054.94;;;-0.50;64.78
4022;BME280;2025;48.260;16.432;2023-02-28T07:39:29;101058.91;;;-0.62;65.14
4022;BME280;2025;48.260;16.432;2023-02-28T07:41:55;101057.94;;;-0.59;64.96
4022;BME280;2025;48.260;16.432;2023-02-28T07:44:22;101067.34;;;-0.58;65.29
4022;BME280;2025;48.260;16.432;2023-02-28T07:46:49;101057.59;;;-0.52;65.07
4022;BME280;2025;48.260;16.432;2023-02-28T07:49:17;101066.66;;;-0.41;64.97
4022;BME280;2025;48.260;16.432;2023-02-28T07:51:44;101066.16;;;-0.31;65.54
4022;BME280;2025;48.260;16.432;2023-02-28T07:54:11;101066.41;;;-0.16;64.25
4022;BME280;2025;48.260;16.432;2023-02-28T07:56:38;101070.63;;;0.05;63.74
4022;BME280;2025;48.260;16.432;2023-02-28T07:59:04;101063.34;;;0.13;62.62
4022;BME280;2025;48.260;16.432;2023-02-28T08:01:31;101061.94;;;0.06;62.43
4022;BME280;2025;48.260;16.432;2023-02-28T08:03:58;101064.94;;;-0.03;63.17
4022;BME280;2025;48.260;16.432;2023-02-28T08:06:27;101067.75;;;0.11;63.05
4022;BME280;2025;48.260;16.432;2023-02-28T08:08:54;101074.63;;;-0.07;63.39
4022;BME280;2025;48.260;16.432;2023-02-28T08:11:22;101071.88;;;-0.04;64.21
4022;BME280;2025;48.260;16.432;2023-02-28T08:13:49;101069.91;;;0.20;63.75
4022;BME280;2025;48.260;16.432;2023-02-28T08:16:16;101067.94;;;0.45;62.19
4022;BME280;2025;48.260;16.432;2023-02-28T08:18:47;101061.41;;;0.55;61.82
4022;BME280;2025;48.260;16.432;2023-02-28T08:21:14;101070.97;;;0.72;61.74
4022;BME280;2025;48.260;16.432;2023-02-28T08:23:43;101074.66;;;0.85;61.61
4022;BME280;2025;48.260;16.432;2023-02-28T08:26:10;101065.09;;;0.86;61.01
4022;BME280;2025;48.260;16.432;2023-02-28T08:28:36;101068.25;;;0.92;62.59
4022;BME280;2025;48.260;16.432;2023-02-28T08:31:07;101070.47;;;1.00;63.52
4022;BME280;2025;48.260;16.432;2023-02-28T08:33:35;101067.19;;;0.96;62.10
4022;BME280;2025;48.260;16.432;2023-02-28T08:36:05;101068.19;;;1.11;62.30
4022;BME280;2025;48.260;16.432;2023-02-28T08:38:32;101062.84;;;1.32;60.88
4022;BME280;2025;48.260;16.432;2023-02-28T08:41:03;101062.66;;;1.35;60.88
4022;BME280;2025;48.260;16.432;2023-02-28T08:43:31;101074.41;;;1.42;61.00
4022;BME280;2025;48.260;16.432;2023-02-28T08:45:58;101067.50;;;1.58;60.06
4022;BME280;2025;48.260;16.432;2023-02-28T08:48:25;101079.78;;;1.72;59.67
4022;BME280;2025;48.260;16.432;2023-02-28T08:50:56;101078.44;;;1.65;60.33
4022;BME280;2025;48.260;16.432;2023-02-28T08:53:23;101076.44;;;1.70;61.16
4022;BME280;2025;48.260;16.432;2023-02-28T08:55:56;101078.47;;;1.81;59.82
4022;BME280;2025;48.260;16.432;2023-02-28T08:58:25;101077.41;;;1.85;60.56
4022;BME280;2025;48.260;16.432;2023-02-28T09:00:52;101076.56;;;2.00;58.95
4022;BME280;2025;48.260;16.432;2023-02-28T09:03:20;101078.84;;;2.06;59.89
4022;BME280;2025;48.260;16.432;2023-02-28T09:05:54;101077.78;;;2.10;59.00
4022;BME280;2025;48.260;16.432;2023-02-28T09:08:22;101082.38;;;2.21;59.84
4022;BME280;2025;48.260;16.432;2023-02-28T09:10:49;101080.28;;;2.28;57.53
4022;BME280;2025;48.260;16.432;2023-02-28T09:13:16;101069.63;;;2.32;58.39
4022;BME280;2025;48.260;16.432;2023-02-28T09:15:47;101077.44;;;2.48;57.20
4022;BME280;2025;48.260;16.432;2023-02-28T09:18:14;101081.03;;;2.46;57.90
4022;BME280;2025;48.260;16.432;2023-02-28T09:20:42;101082.75;;;2.31;58.44
4022;BME280;2025;48.260;16.432;2023-02-28T09:23:11;101079.38;;;2.45;57.38
4022;BME280;2025;48.260;16.432;2023-02-28T09:25:40;101072.06;;;2.51;58.49
4022;BME280;2025;48.260;16.432;2023-02-28T09:28:11;101073.06;;;2.65;56.66
4022;BME280;2025;48.260;16.432;2023-02-28T09:30:39;101072.41;;;2.61;57.55
4022;BME280;2025;48.260;16.432;2023-02-28T09:33:08;101068.03;;;2.78;57.53
4022;BME280;2025;48.260;16.432;2023-02-28T09:35:35;101069.19;;;3.02;56.85
4022;BME280;2025;48.260;16.432;2023-02-28T09:38:03;101075.94;;;3.21;56.05
4022;BME280;2025;48.260;16.432;2023-02-28T09:40:30;101072.19;;;3.41;55.16
4022;BME280;2025;48.260;16.432;2023-02-28T09:42:59;101070.50;;;3.68;53.88
4022;BME280;2025;48.260;16.432;2023-02-28T09:45:30;101074.44;;;3.90;53.11
4022;BME280;2025;48.260;16.432;2023-02-28T09:48:00;101075.91;;;3.65;52.51
4022;BME280;2025;48.260;16.432;2023-02-28T09:50:34;101077.69;;;3.65;52.67
4022;BME280;2025;48.260;16.432;2023-02-28T09:53:05;101080.91;;;3.54;53.04
4022;BME280;2025;48.260;16.432;2023-02-28T09:55:39;101079.53;;;3.48;53.16
4022;BME280;2025;48.260;16.432;2023-02-28T09:58:16;101087.91;;;3.53;52.57
4022;BME280;2025;48.260;16.432;2023-02-28T10:00:58;101074.97;;;3.52;53.87
4022;BME280;2025;48.260;16.432;2023-02-28T10:03:30;101087.19;;;3.80;54.54
4022;BME280;2025;48.260;16.432;2023-02-28T10:06:07;101091.19;;;3.86;52.78
4022;BME280;2025;48.260;16.432;2023-02-28T10:08:42;101088.94;;;3.94;53.12
4022;BME280;2025;48.260;16.432;2023-02-28T10:11:16;101091.66;;;3.78;52.25
4022;BME280;2025;48.260;16.432;2023-02-28T10:13:51;101086.41;;;3.49;52.82
4022;BME280;2025;48.260;16.432;2023-02-28T10:16:25;101090.28;;;3.28;53.48
4022;BME280;2025;48.260;16.432;2023-02-28T10:19:04;101089.13;;;3.03;54.28
4022;BME280;2025;48.260;16.432;2023-02-28T10:21:38;101094.94;;;2.77;56.70
4022;BME280;2025;48.260;16.432;2023-02-28T10:24:18;101094.84;;;2.94;55.74
4022;BME280;2025;48.260;16.432;2023-02-28T10:26:47;101089.91;;;3.20;54.47
4022;BME280;2025;48.260;16.432;2023-02-28T10:29:15;101083.91;;;3.33;54.17
4022;BME280;2025;48.260;16.432;2023-02-28T10:31:42;101081.31;;;3.48;54.50
4022;BME280;2025;48.260;16.432;2023-02-28T10:34:12;101079.53;;;3.48;55.05
4022;BME280;2025;48.260;16.432;2023-02-28T10:36:41;101072.75;;;3.60;53.18
4022;BME280;2025;48.260;16.432;2023-02-28T10:39:35;101075.81;;;3.95;51.80
4022;BME280;2025;48.260;16.432;2023-02-28T10:42:02;101065.00;;;4.16;51.52
4022;BME280;2025;48.260;16.432;2023-02-28T10:44:29;101065.28;;;4.11;52.24
4022;BME280;2025;48.260;16.432;2023-02-28T10:46:56;101064.97;;;4.30;52.06
4022;BME280;2025;48.260;16.432;2023-02-28T10:49:25;101054.72;;;4.69;50.96
4022;BME280;2025;48.260;16.432;2023-02-28T10:51:56;101053.84;;;4.68;50.19
4022;BME280;2025;48.260;16.432;2023-02-28T10:54:27;101044.38;;;5.20;48.86
4022;BME280;2025;48.260;16.432;2023-02-28T10:57:13;101049.56;;;5.71;47.46
4022;BME280;2025;48.260;16.432;2023-02-28T10:59:41;101034.38;;;6.15;49.63
4022;BME280;2025;48.260;16.432;2023-02-28T11:02:29;101033.59;;;6.25;45.08
4022;BME280;2025;48.260;16.432;2023-02-28T11:04:58;101035.63;;;6.46;46.25
4022;BME280;2025;48.260;16.432;2023-02-28T11:07:27;101033.25;;;6.78;44.62
4022;BME280;2025;48.260;16.432;2023-02-28T11:09:55;101021.84;;;7.37;43.79
4022;BME280;2025;48.260;16.432;2023-02-28T11:12:25;101026.38;;;7.69;42.35
4022;BME280;2025;48.260;16.432;2023-02-28T11:14:55;101024.72;;;7.68;41.64
4022;BME280;2025;48.260;16.432;2023-02-28T11:17:24;101013.78;;;7.63;41.18
4022;BME280;2025;48.260;16.432;2023-02-28T11:19:54;101009.66;;;7.02;43.71
4022;BME280;2025;48.260;16.432;2023-02-28T11:22:26;101011.41;;;6.66;43.85
4022;BME280;2025;48.260;16.432;2023-02-28T11:24:56;101012.28;;;6.43;44.46
4022;BME280;2025;48.260;16.432;2023-02-28T11:30:27;101002.72;;;7.01;43.29
4022;BME280;2025;48.260;16.432;2023-02-28T11:32:54;100999.84;;;7.51;42.14
4022;BME280;2025;48.260;16.432;2023-02-28T11:35:25;100995.34;;;8.08;40.44
4022;BME280;2025;48.260;16.432;2023-02-28T11:37:54;100992.91;;;8.27;41.51
4022;BME280;2025;48.260;16.432;2023-02-28T11:40:30;100991.13;;;8.28;39.53
4022;BME280;2025;48.260;16.432;2023-02-28T11:43:06;100982.94;;;8.10;39.63
4022;BME280;2025;48.260;16.432;2023-02-28T11:45:44;100981.91;;;8.33;39.64
4022;BME280;2025;48.260;16.432;2023-02-28T11:48:18;100977.81;;;8.52;39.20
4022;BME280;2025;48.260;16.432;2023-02-28T11:50:54;100978.53;;;8.54;39.22
4022;BME280;2025;48.260;16.432;2023-02-28T11:53:37;100976.97;;;8.83;39.00
4022;BME280;2025;48.260;16.432;2023-02-28T11:56:11;100977.81;;;8.52;39.15
4022;BME280;2025;48.260;16.432;2023-02-28T11:58:49;100979.31;;;7.45;42.71
4022;BME280;2025;48.260;16.432;2023-02-28T12:01:28;100978.00;;;7.84;41.18
4022;BME280;2025;48.260;16.432;2023-02-28T12:04:09;100967.00;;;8.45;40.99
4022;BME280;2025;48.260;16.432;2023-02-28T12:06:43;100964.69;;;9.45;37.17
4022;BME280;2025;48.260;16.432;2023-02-28T12:09:29;100963.09;;;9.23;37.51
4022;BME280;2025;48.260;16.432;2023-02-28T12:12:05;100950.94;;;9.63;36.57
4022;BME280;2025;48.260;16.432;2023-02-28T12:14:53;100964.13;;;9.42;36.51
4022;BME280;2025;48.260;16.432;2023-02-28T12:17:42;100961.41;;;8.27;38.31
4022;BME280;2025;48.260;16.432;2023-02-28T12:20:19;100958.34;;;7.00;41.44
4022;BME280;2025;48.260;16.432;2023-02-28T12:22:57;100955.66;;;6.42;42.56
4022;BME280;2025;48.260;16.432;2023-02-28T12:25:54;100946.44;;;7.18;40.95
4022;BME280;2025;48.260;16.432;2023-02-28T12:28:30;100948.78;;;7.89;42.77
4022;BME280;2025;48.260;16.432;2023-02-28T12:31:02;100950.13;;;7.60;40.83
4022;BME280;2025;48.260;16.432;2023-02-28T12:33:34;100937.41;;;6.64;42.00
4022;BME280;2025;48.260;16.432;2023-02-28T12:36:05;100951.97;;;5.96;43.74
4022;BME280;2025;48.260;16.432;2023-02-28T12:38:41;100948.09;;;5.65;44.55
4022;BME280;2025;48.260;16.432;2023-02-28T12:41:14;100938.31;;;5.80;45.11
4022;BME280;2025;48.260;16.432;2023-02-28T12:43:46;100936.75;;;6.14;44.26
4022;BME280;2025;48.260;16.432;2023-02-28T12:46:17;100936.28;;;6.44;43.11
4022;BME280;2025;48.260;16.432;2023-02-28T12:48:48;100933.06;;;6.99;41.58
4022;BME280;2025;48.260;16.432;2023-02-28T12:51:17;100934.00;;;6.86;41.52
4022;BME280;2025;48.260;16.432;2023-02-28T12:53:54;100929.94;;;6.36;42.54
4022;BME280;2025;48.260;16.432;2023-02-28T12:56:33;100938.53;;;6.14;43.28
4022;BME280;2025;48.260;16.432;2023-02-28T12:59:03;100943.72;;;5.53;44.34
4022;BME280;2025;48.260;16.432;2023-02-28T13:01:44;100937.25;;;5.33;44.71
4022;BME280;2025;48.260;16.432;2023-02-28T13:04:32;100933.47;;;5.86;45.85
4022;BME280;2025;48.260;16.432;2023-02-28T13:10:12;100917.53;;;6.62;41.20
4022;BME280;2025;48.260;16.432;2023-02-28T13:12:49;100917.38;;;6.17;44.24
4022;BME280;2025;48.260;16.432;2023-02-28T13:15:19;100916.09;;;6.22;42.21
4022;BME280;2025;48.260;16.432;2023-02-28T13:17:50;100926.78;;;6.19;42.33
4022;BME280;2025;48.260;16.432;2023-02-28T13:20:20;100913.25;;;6.61;41.49
4022;BME280;2025;48.260;16.432;2023-02-28T13:22:49;100917.06;;;6.68;40.65
4022;BME280;2025;48.260;16.432;2023-02-28T13:25:51;100908.56;;;6.18;41.79
4022;BME280;2025;48.260;16.432;2023-02-28T13:34:40;100909.72;;;7.52;39.14
4022;BME280;2025;48.260;16.432;2023-02-28T13:37:35;100909.78;;;7.84;38.96
4022;BME280;2025;48.260;16.432;2023-02-28T13:40:29;100904.31;;;8.19;37.07
4022;BME280;2025;48.260;16.432;2023-02-28T13:43:02;100910.09;;;7.58;41.14
4022;BME280;2025;48.260;16.432;2023-02-28T13:45:30;100912.00;;;6.89;40.30
4022;BME280;2025;48.260;16.432;2023-02-28T13:48:15;100916.81;;;6.24;40.92
4022;BME280;2025;48.260;16.432;2023-02-28T13:50:43;100915.97;;;6.24;41.68